sensor_id;sensor_type;location;lat;lon;timestamp;P1;durP1;ratioP1;P2;durP2;ratioP2
3696;SDS011;60662;48.810;8.872;2023-04-19T07:18:27;23.88;;;13.35;;
3696;SDS011;60662;48.810;8.872;2023-04-19T07:20:54;19.83;;;11.80;;
3696;SDS011;60662;48.810;8.872;2023-04-19T07:23:17;20.45;;;13.07;;
3696;SDS011;60662;48.810;8.872;2023-04-19T07:25:39;25.42;;;14.10;;
3696;SDS011;60662;48.810;8.872;2023-04-19T07:26:40;23.70;;;13.00;;
3696;SDS011;60662;48.810;8.872;2023-04-19T07:29:01;21.80;;;13.73;;
3696;SDS011;60662;48.810;8.872;2023-04-19T07:31:19;23.55;;;14.25;;
3696;SDS011;60662;48.810;8.872;2023-04-19T07:32:21;23.13;;;14.35;;
3696;SDS011;60662;48.810;8.872;2023-04-19T07:33:23;23.75;;;15.13;;
3696;SDS011;60662;48.810;8.872;2023-04-19T07:34:28;25.02;;;14.48;;
3696;SDS011;60662;48.810;8.872;2023-04-19T07:35:29;25.63;;;14.38;;
3696;SDS011;60662;48.810;8.872;2023-04-19T07:36:31;26.70;;;13.85;;
3696;SDS011;60662;48.810;8.872;2023-04-19T07:37:35;19.70;;;12.85;;
3696;SDS011;60662;48.810;8.872;2023-04-19T07:38:36;27.98;;;15.07;;
3696;SDS011;60662;48.810;8.872;2023-04-19T07:39:38;21.77;;;14.40;;
3696;SDS011;60662;48.810;8.872;2023-04-19T07:40:39;19.40;;;13.80;;
3696;SDS011;60662;48.810;8.872;2023-04-19T07:41:41;22.58;;;13.57;;
3696;SDS011;60662;48.810;8.872;2023-04-19T07:42:42;20.17;;;13.57;;
3696;SDS011;60662;48.810;8.872;2023-04-19T07:43:44;24.80;;;13.65;;
3696;SDS011;60662;48.810;8.872;2023-04-19T07:44:45;22.65;;;13.93;;
3696;SDS011;60662;48.810;8.872;2023-04-19T07:45:47;19.55;;;12.85;;
3696;SDS011;60662;48.810;8.872;2023-04-19T07:46:48;20.42;;;12.57;;
3696;SDS011;60662;48.810;8.872;2023-04-19T07:47:50;19.20;;;12.27;;
3696;SDS011;60662;48.810;8.872;2023-04-19T07:48:51;20.67;;;12.90;;
3696;SDS011;60662;48.810;8.872;2023-04-19T07:49:54;25.45;;;11.88;;
3696;SDS011;60662;48.810;8.872;2023-04-19T07:50:56;22.90;;;11.38;;
3696;SDS011;60662;48.810;8.872;2023-04-19T07:51:57;24.00;;;10.93;;
3696;SDS011;60662;48.810;8.872;2023-04-19T07:52:58;20.95;;;12.70;;
3696;SDS011;60662;48.810;8.872;2023-04-19T07:54:00;20.33;;;12.27;;
3696;SDS011;60662;48.810;8.872;2023-04-19T07:55:01;19.20;;;12.02;;
3696;SDS011;60662;48.810;8.872;2023-04-19T07:56:03;25.13;;;11.93;;
3696;SDS011;60662;48.810;8.872;2023-04-19T07:57:05;20.23;;;12.80;;
3696;SDS011;60662;48.810;8.872;2023-04-19T07:58:06;18.35;;;11.27;;
3696;SDS011;60662;48.810;8.872;2023-04-19T07:59:08;17.77;;;11.23;;
3696;SDS011;60662;48.810;8.872;2023-04-19T08:00:10;20.55;;;11.75;;
3696;SDS011;60662;48.810;8.872;2023-04-19T08:01:13;21.80;;;11.15;;
3696;SDS011;60662;48.810;8.872;2023-04-19T08:02:14;15.57;;;10.40;;
3696;SDS011;60662;48.810;8.872;2023-04-19T08:03:17;17.20;;;11.07;;
3696;SDS011;60662;48.810;8.872;2023-04-19T08:04:19;20.13;;;12.10;;
3696;SDS011;60662;48.810;8.872;2023-04-19T08:05:23;23.00;;;12.05;;
3696;SDS011;60662;48.810;8.872;2023-04-19T08:06:25;19.35;;;11.68;;
3696;SDS011;60662;48.810;8.872;2023-04-19T08:07:27;17.83;;;10.85;;
3696;SDS011;60662;48.810;8.872;2023-04-19T08:08:28;17.80;;;11.50;;
3696;SDS011;60662;48.810;8.872;2023-04-19T08:09:30;16.15;;;10.93;;
3696;SDS011;60662;48.810;8.872;2023-04-19T08:10:34;19.88;;;11.57;;
3696;SDS011;60662;48.810;8.872;2023-04-19T08:11:36;19.30;;;12.07;;
3696;SDS011;60662;48.810;8.872;2023-04-19T08:12:37;17.60;;;10.90;;
3696;SDS011;60662;48.810;8.872;2023-04-19T08:13:57;20.50;;;11.30;;
3696;SDS011;60662;48.810;8.872;2023-04-19T08:15:15;16.27;;;10.23;;
3696;SDS011;60662;48.810;8.872;2023-04-19T08:16:20;20.48;;;9.77;;
3696;SDS011;60662;48.810;8.872;2023-04-19T08:17:41;15.80;;;10.10;;
3696;SDS011;60662;48.810;8.872;2023-04-19T08:18:45;19.80;;;11.20;;
3696;SDS011;60662;48.810;8.872;2023-04-19T08:19:48;20.88;;;10.25;;
3696;SDS011;60662;48.810;8.872;2023-04-19T08:20:50;14.27;;;10.00;;
3696;SDS011;60662;48.810;8.872;2023-04-19T08:21:52;17.10;;;10.02;;
3696;SDS011;60662;48.810;8.872;2023-04-19T08:22:53;12.43;;;8.93;;
3696;SDS011;60662;48.810;8.872;2023-04-19T08:23:55;16.52;;;10.60;;
3696;SDS011;60662;48.810;8.872;2023-04-19T08:24:56;16.65;;;10.45;;
3696;SDS011;60662;48.810;8.872;2023-04-19T08:25:57;13.10;;;9.30;;
3696;SDS011;60662;48.810;8.872;2023-04-19T08:26:59;13.10;;;9.23;;
3696;SDS011;60662;48.810;8.872;2023-04-19T08:28:01;14.45;;;8.55;;
3696;SDS011;60662;48.810;8.872;2023-04-19T08:29:03;14.52;;;8.25;;
3696;SDS011;60662;48.810;8.872;2023-04-19T08:30:04;12.60;;;8.25;;
3696;SDS011;60662;48.810;8.872;2023-04-19T08:31:07;14.45;;;8.40;;
3696;SDS011;60662;48.810;8.872;2023-04-19T08:32:10;13.40;;;9.00;;
3696;SDS011;60662;48.810;8.872;2023-04-19T08:33:12;17.83;;;9.32;;
3696;SDS011;60662;48.810;8.872;2023-04-19T08:34:14;13.48;;;8.30;;
3696;SDS011;60662;48.810;8.872;2023-04-19T08:35:15;16.65;;;8.77;;
3696;SDS011;60662;48.810;8.872;2023-04-19T08:36:17;11.52;;;8.05;;
3696;SDS011;60662;48.810;8.872;2023-04-19T08:37:29;13.65;;;8.93;;
3696;SDS011;60662;48.810;8.872;2023-04-19T08:38:30;15.55;;;9.70;;
3696;SDS011;60662;48.810;8.872;2023-04-19T08:39:32;13.75;;;9.05;;
3696;SDS011;60662;48.810;8.872;2023-04-19T08:40:35;14.05;;;8.30;;
3696;SDS011;60662;48.810;8.872;2023-04-19T08:41:41;16.00;;;8.80;;
3696;SDS011;60662;48.810;8.872;2023-04-19T08:42:46;16.60;;;9.35;;
3696;SDS011;60662;48.810;8.872;2023-04-19T08:43:47;15.57;;;9.57;;
3696;SDS011;60662;48.810;8.872;2023-04-19T08:44:52;13.77;;;8.38;;
3696;SDS011;60662;48.810;8.872;2023-04-19T08:46:17;13.48;;;8.35;;
3696;SDS011;60662;48.810;8.872;2023-04-19T08:47:19;17.83;;;9.00;;
3696;SDS011;60662;48.810;8.872;2023-04-19T08:48:33;13.38;;;8.35;;
3696;SDS011;60662;48.810;8.872;2023-04-19T08:49:35;14.82;;;9.15;;
3696;SDS011;60662;48.810;8.872;2023-04-19T08:50:43;12.05;;;8.27;;
3696;SDS011;60662;48.810;8.872;2023-04-19T08:52:05;14.93;;;9.60;;
3696;SDS011;60662;48.810;8.872;2023-04-19T08:53:08;13.55;;;8.25;;
3696;SDS011;60662;48.810;8.872;2023-04-19T08:54:14;11.63;;;8.07;;
3696;SDS011;60662;48.810;8.872;2023-04-19T08:55:16;14.35;;;8.45;;
3696;SDS011;60662;48.810;8.872;2023-04-19T08:56:18;11.95;;;8.32;;
3696;SDS011;60662;48.810;8.872;2023-04-19T08:57:32;15.05;;;10.65;;
3696;SDS011;60662;48.810;8.872;2023-04-19T08:58:34;16.25;;;9.43;;
3696;SDS011;60662;48.810;8.872;2023-04-19T08:59:56;15.35;;;9.85;;
3696;SDS011;60662;48.810;8.872;2023-04-19T09:00:58;14.63;;;9.68;;
3696;SDS011;60662;48.810;8.872;2023-04-19T09:02:00;17.38;;;9.77;;
3696;SDS011;60662;48.810;8.872;2023-04-19T09:03:02;13.23;;;8.93;;
3696;SDS011;60662;48.810;8.872;2023-04-19T09:04:05;16.58;;;8.52;;
3696;SDS011;60662;48.810;8.872;2023-04-19T09:05:27;14.90;;;9.05;;
3696;SDS011;60662;48.810;8.872;2023-04-19T09:06:33;18.92;;;10.10;;
3696;SDS011;60662;48.810;8.872;2023-04-19T09:07:36;14.70;;;9.38;;
3696;SDS011;60662;48.810;8.872;2023-04-19T09:08:38;14.32;;;9.30;;
3696;SDS011;60662;48.810;8.872;2023-04-19T09:09:41;16.77;;;11.23;;
3696;SDS011;60662;48.810;8.872;2023-04-19T09:11:02;14.25;;;9.20;;
3696;SDS011;60662;48.810;8.872;2023-04-19T09:12:12;15.93;;;9.77;;
3696;SDS011;60662;48.810;8.872;2023-04-19T09:13:17;17.23;;;10.52;;
3696;SDS011;60662;48.810;8.872;2023-04-19T09:14:19;14.98;;;9.85;;
3696;SDS011;60662;48.810;8.872;2023-04-19T09:15:22;18.83;;;10.98;;
3696;SDS011;60662;48.810;8.872;2023-04-19T09:16:37;21.92;;;8.93;;
3696;SDS011;60662;48.810;8.872;2023-04-19T09:17:39;16.20;;;9.65;;
3696;SDS011;60662;48.810;8.872;2023-04-19T09:18:54;19.52;;;9.70;;
3696;SDS011;60662;48.810;8.872;2023-04-19T09:20:15;19.45;;;11.77;;
3696;SDS011;60662;48.810;8.872;2023-04-19T09:21:26;15.48;;;9.85;;
3696;SDS011;60662;48.810;8.872;2023-04-19T09:22:30;16.88;;;9.57;;
3696;SDS011;60662;48.810;8.872;2023-04-19T09:23:32;16.30;;;9.95;;
3696;SDS011;60662;48.810;8.872;2023-04-19T09:24:37;19.48;;;10.45;;
3696;SDS011;60662;48.810;8.872;2023-04-19T09:26:00;16.95;;;10.95;;
3696;SDS011;60662;48.810;8.872;2023-04-19T09:27:05;17.05;;;10.05;;
3696;SDS011;60662;48.810;8.872;2023-04-19T09:28:13;13.73;;;9.50;;
3696;SDS011;60662;48.810;8.872;2023-04-19T09:29:15;19.35;;;11.00;;
3696;SDS011;60662;48.810;8.872;2023-04-19T09:30:18;16.88;;;9.70;;
3696;SDS011;60662;48.810;8.872;2023-04-19T09:31:36;14.60;;;10.52;;
3696;SDS011;60662;48.810;8.872;2023-04-19T09:32:45;16.10;;;10.65;;
3696;SDS011;60662;48.810;8.872;2023-04-19T09:33:48;15.30;;;8.73;;
3696;SDS011;60662;48.810;8.872;2023-04-19T09:34:53;14.20;;;10.35;;
3696;SDS011;60662;48.810;8.872;2023-04-19T09:35:59;15.73;;;10.05;;
3696;SDS011;60662;48.810;8.872;2023-04-19T09:37:12;13.85;;;8.85;;
3696;SDS011;60662;48.810;8.872;2023-04-19T09:38:45;16.30;;;9.65;;
3696;SDS011;60662;48.810;8.872;2023-04-19T09:39:49;22.70;;;11.15;;
3696;SDS011;60662;48.810;8.872;2023-04-19T09:40:50;17.35;;;10.65;;
3696;SDS011;60662;48.810;8.872;2023-04-19T09:41:53;22.17;;;10.68;;
3696;SDS011;60662;48.810;8.872;2023-04-19T09:42:55;14.93;;;9.63;;
3696;SDS011;60662;48.810;8.872;2023-04-19T09:44:09;17.02;;;10.40;;
3696;SDS011;60662;48.810;8.872;2023-04-19T09:45:41;14.27;;;10.13;;
3696;SDS011;60662;48.810;8.872;2023-04-19T09:46:44;16.33;;;10.43;;
3696;SDS011;60662;48.810;8.872;2023-04-19T09:48:03;15.90;;;10.60;;
3696;SDS011;60662;48.810;8.872;2023-04-19T09:50:52;20.30;;;9.80;;
3696;SDS011;60662;48.810;8.872;2023-04-19T09:52:04;16.38;;;8.95;;
3696;SDS011;60662;48.810;8.872;2023-04-19T09:53:06;15.30;;;10.55;;
3696;SDS011;60662;48.810;8.872;2023-04-19T09:54:09;16.48;;;9.43;;
3696;SDS011;60662;48.810;8.872;2023-04-19T09:55:11;16.42;;;9.70;;
3696;SDS011;60662;48.810;8.872;2023-04-19T09:56:27;15.38;;;9.90;;
3696;SDS011;60662;48.810;8.872;2023-04-19T09:57:30;14.93;;;9.82;;
3696;SDS011;60662;48.810;8.872;2023-04-19T09:58:32;14.70;;;9.90;;
3696;SDS011;60662;48.810;8.872;2023-04-19T09:59:51;14.95;;;10.10;;
3696;SDS011;60662;48.810;8.872;2023-04-19T10:00:52;24.50;;;10.95;;
3696;SDS011;60662;48.810;8.872;2023-04-19T10:02:11;15.45;;;9.40;;
3696;SDS011;60662;48.810;8.872;2023-04-19T10:03:15;16.35;;;10.95;;
3696;SDS011;60662;48.810;8.872;2023-04-19T10:04:17;14.10;;;9.52;;
3696;SDS011;60662;48.810;8.872;2023-04-19T10:05:43;14.77;;;9.88;;
3696;SDS011;60662;48.810;8.872;2023-04-19T10:06:46;14.90;;;10.32;;
3696;SDS011;60662;48.810;8.872;2023-04-19T10:08:10;12.60;;;8.07;;
3696;SDS011;60662;48.810;8.872;2023-04-19T10:09:12;12.85;;;9.77;;
3696;SDS011;60662;48.810;8.872;2023-04-19T10:10:15;14.48;;;9.90;;
3696;SDS011;60662;48.810;8.872;2023-04-19T10:11:22;13.77;;;9.82;;
3696;SDS011;60662;48.810;8.872;2023-04-19T10:12:27;13.95;;;9.48;;
3696;SDS011;60662;48.810;8.872;2023-04-19T10:13:52;14.73;;;9.00;;
3696;SDS011;60662;48.810;8.872;2023-04-19T10:14:57;13.90;;;9.15;;
3696;SDS011;60662;48.810;8.872;2023-04-19T10:15:58;13.05;;;8.45;;
3696;SDS011;60662;48.810;8.872;2023-04-19T10:17:18;13.07;;;8.77;;
3696;SDS011;60662;48.810;8.872;2023-04-19T10:18:21;17.95;;;9.68;;
3696;SDS011;60662;48.810;8.872;2023-04-19T10:19:23;14.48;;;9.60;;
3696;SDS011;60662;48.810;8.872;2023-04-19T10:21:10;17.75;;;9.93;;
3696;SDS011;60662;48.810;8.872;2023-04-19T10:21:58;16.20;;;10.15;;
3696;SDS011;60662;48.810;8.872;2023-04-19T10:23:00;17.52;;;8.88;;
3696;SDS011;60662;48.810;8.872;2023-04-19T10:24:02;18.40;;;10.38;;
3696;SDS011;60662;48.810;8.872;2023-04-19T10:25:11;13.05;;;9.68;;
3696;SDS011;60662;48.810;8.872;2023-04-19T10:26:14;14.23;;;8.95;;
3696;SDS011;60662;48.810;8.872;2023-04-19T10:27:16;17.63;;;10.15;;
3696;SDS011;60662;48.810;8.872;2023-04-19T10:28:28;14.02;;;9.75;;
3696;SDS011;60662;48.810;8.872;2023-04-19T10:30:59;12.27;;;8.85;;
3696;SDS011;60662;48.810;8.872;2023-04-19T10:32:04;14.32;;;8.90;;
3696;SDS011;60662;48.810;8.872;2023-04-19T10:33:06;14.82;;;9.57;;
3696;SDS011;60662;48.810;8.872;2023-04-19T10:34:08;14.55;;;8.38;;
3696;SDS011;60662;48.810;8.872;2023-04-19T10:35:16;15.02;;;8.48;;
3696;SDS011;60662;48.810;8.872;2023-04-19T10:36:19;16.52;;;9.48;;
3696;SDS011;60662;48.810;8.872;2023-04-19T10:37:22;18.08;;;9.15;;
3696;SDS011;60662;48.810;8.872;2023-04-19T10:38:36;13.13;;;8.63;;
3696;SDS011;60662;48.810;8.872;2023-04-19T10:39:43;16.70;;;9.70;;
3696;SDS011;60662;48.810;8.872;2023-04-19T10:42:01;17.17;;;10.13;;
3696;SDS011;60662;48.810;8.872;2023-04-19T10:44:10;13.77;;;9.80;;
3696;SDS011;60662;48.810;8.872;2023-04-19T10:45:31;14.48;;;10.20;;
3696;SDS011;60662;48.810;8.872;2023-04-19T10:47:43;23.88;;;10.88;;
3696;SDS011;60662;48.810;8.872;2023-04-19T10:49:06;16.58;;;9.38;;
3696;SDS011;60662;48.810;8.872;2023-04-19T10:50:08;17.50;;;10.48;;
3696;SDS011;60662;48.810;8.872;2023-04-19T10:51:10;12.85;;;8.75;;
3696;SDS011;60662;48.810;8.872;2023-04-19T10:52:25;15.30;;;10.10;;
3696;SDS011;60662;48.810;8.872;2023-04-19T10:53:45;18.95;;;9.98;;
3696;SDS011;60662;48.810;8.872;2023-04-19T10:54:54;16.20;;;9.27;;
3696;SDS011;60662;48.810;8.872;2023-04-19T15:28:22;21.50;;;11.60;;
3696;SDS011;60662;48.810;8.872;2023-04-19T15:29:24;21.27;;;12.07;;
3696;SDS011;60662;48.810;8.872;2023-04-19T15:30:25;25.73;;;11.85;;
3696;SDS011;60662;48.810;8.872;2023-04-19T15:31:27;20.88;;;12.68;;
3696;SDS011;60662;48.810;8.872;2023-04-19T15:32:28;24.40;;;11.32;;
3696;SDS011;60662;48.810;8.872;2023-04-19T15:33:35;24.05;;;10.75;;
3696;SDS011;60662;48.810;8.872;2023-04-19T15:34:36;16.98;;;10.75;;
3696;SDS011;60662;48.810;8.872;2023-04-19T15:35:38;21.95;;;11.20;;
3696;SDS011;60662;48.810;8.872;2023-04-19T15:36:39;26.83;;;11.15;;
3696;SDS011;60662;48.810;8.872;2023-04-19T15:37:41;22.85;;;11.27;;
3696;SDS011;60662;48.810;8.872;2023-04-19T15:38:43;19.75;;;10.60;;
3696;SDS011;60662;48.810;8.872;2023-04-19T15:39:45;15.75;;;10.63;;
3696;SDS011;60662;48.810;8.872;2023-04-19T15:40:49;16.60;;;11.20;;
3696;SDS011;60662;48.810;8.872;2023-04-19T15:41:51;15.32;;;10.48;;
3696;SDS011;60662;48.810;8.872;2023-04-19T15:42:52;26.23;;;10.55;;
3696;SDS011;60662;48.810;8.872;2023-04-19T15:43:53;18.98;;;9.70;;
3696;SDS011;60662;48.810;8.872;2023-04-19T15:44:56;20.35;;;10.73;;
3696;SDS011;60662;48.810;8.872;2023-04-19T15:45:57;18.65;;;9.85;;
3696;SDS011;60662;48.810;8.872;2023-04-19T15:46:59;14.35;;;9.75;;
3696;SDS011;60662;48.810;8.872;2023-04-19T15:48:00;14.77;;;10.18;;
3696;SDS011;60662;48.810;8.872;2023-04-19T15:49:02;15.18;;;10.43;;
3696;SDS011;60662;48.810;8.872;2023-04-19T15:50:04;16.02;;;10.80;;
3696;SDS011;60662;48.810;8.872;2023-04-19T15:51:06;21.38;;;9.32;;
3696;SDS011;60662;48.810;8.872;2023-04-19T15:52:08;15.95;;;9.13;;
3696;SDS011;60662;48.810;8.872;2023-04-19T15:53:09;15.52;;;8.93;;
3696;SDS011;60662;48.810;8.872;2023-04-19T15:54:12;12.73;;;9.30;;
3696;SDS011;60662;48.810;8.872;2023-04-19T15:55:14;14.95;;;9.00;;
3696;SDS011;60662;48.810;8.872;2023-04-19T15:56:16;17.30;;;9.30;;
3696;SDS011;60662;48.810;8.872;2023-04-19T15:57:18;15.75;;;10.27;;
3696;SDS011;60662;48.810;8.872;2023-04-19T15:58:19;23.05;;;9.38;;
3696;SDS011;60662;48.810;8.872;2023-04-19T15:59:21;13.68;;;9.95;;
3696;SDS011;60662;48.810;8.872;2023-04-19T16:00:22;13.50;;;9.05;;
3696;SDS011;60662;48.810;8.872;2023-04-19T16:01:23;14.75;;;9.40;;
3696;SDS011;60662;48.810;8.872;2023-04-19T16:02:25;15.73;;;8.88;;
3696;SDS011;60662;48.810;8.872;2023-04-19T16:03:27;18.80;;;9.68;;
3696;SDS011;60662;48.810;8.872;2023-04-19T16:04:29;14.15;;;9.02;;
3696;SDS011;60662;48.810;8.872;2023-04-19T16:05:31;12.07;;;8.23;;
3696;SDS011;60662;48.810;8.872;2023-04-19T16:06:33;12.45;;;7.82;;
3696;SDS011;60662;48.810;8.872;2023-04-19T16:07:34;14.30;;;8.30;;
3696;SDS011;60662;48.810;8.872;2023-04-19T16:08:35;16.40;;;8.10;;
3696;SDS011;60662;48.810;8.872;2023-04-19T16:09:37;20.15;;;9.10;;
3696;SDS011;60662;48.810;8.872;2023-04-19T16:10:38;18.88;;;9.45;;
3696;SDS011;60662;48.810;8.872;2023-04-19T16:11:40;12.15;;;8.10;;
3696;SDS011;60662;48.810;8.872;2023-04-19T16:12:41;13.65;;;8.90;;
3696;SDS011;60662;48.810;8.872;2023-04-19T16:13:44;15.13;;;9.00;;
3696;SDS011;60662;48.810;8.872;2023-04-19T16:14:45;17.83;;;8.40;;
3696;SDS011;60662;48.810;8.872;2023-04-19T16:15:47;14.55;;;8.13;;
3696;SDS011;60662;48.810;8.872;2023-04-19T16:16:48;14.60;;;8.60;;
3696;SDS011;60662;48.810;8.872;2023-04-19T16:17:50;12.90;;;8.15;;
3696;SDS011;60662;48.810;8.872;2023-04-19T16:18:52;16.75;;;8.50;;
3696;SDS011;60662;48.810;8.872;2023-04-19T16:19:53;13.23;;;8.95;;
3696;SDS011;60662;48.810;8.872;2023-04-19T16:20:55;17.70;;;7.82;;
3696;SDS011;60662;48.810;8.872;2023-04-19T16:21:56;11.63;;;7.78;;
3696;SDS011;60662;48.810;8.872;2023-04-19T16:23:02;9.35;;;7.15;;
3696;SDS011;60662;48.810;8.872;2023-04-19T16:24:04;14.25;;;7.82;;
3696;SDS011;60662;48.810;8.872;2023-04-19T16:25:05;15.25;;;8.05;;
3696;SDS011;60662;48.810;8.872;2023-04-19T16:26:07;12.25;;;6.57;;
3696;SDS011;60662;48.810;8.872;2023-04-19T16:27:08;17.50;;;9.10;;
3696;SDS011;60662;48.810;8.872;2023-04-19T16:28:10;14.65;;;9.13;;
3696;SDS011;60662;48.810;8.872;2023-04-19T16:29:11;15.73;;;7.45;;
3696;SDS011;60662;48.810;8.872;2023-04-19T16:30:13;16.33;;;7.40;;
3696;SDS011;60662;48.810;8.872;2023-04-19T16:31:16;16.13;;;8.13;;
3696;SDS011;60662;48.810;8.872;2023-04-19T16:32:18;17.67;;;7.28;;
3696;SDS011;60662;48.810;8.872;2023-04-19T16:33:19;12.30;;;7.43;;
3696;SDS011;60662;48.810;8.872;2023-04-19T16:34:21;12.27;;;7.43;;
3696;SDS011;60662;48.810;8.872;2023-04-19T16:35:25;9.57;;;7.30;;
3696;SDS011;60662;48.810;8.872;2023-04-19T16:36:27;19.15;;;8.15;;
